Time;durP1;ratioP1;P1;durP2;ratioP2;P2;SDS_P1;SDS_P2;PMS_P1;PMS_P2;Temp;Humidity;BMP_temperature;BMP_pressure;BME280_temperature;BME280_humidity;BME280_pressure;Samples;Min_cycle;Max_cycle;Signal;HPM_P1;HPM_P2
2021/12/09 00:02:20;;;;;;;1.30;1.10;;;4.40;98.00;;;;;;5094183;28;20456;-63
2021/12/09 00:08:21;;;;;;;1.10;1.00;;;4.30;98.00;;;;;;5070887;28;20456;-63
2021/12/09 00:10:50;;;;;;;1.10;1.00;;;4.40;98.00;;;;;;5094889;28;20451;-62
2021/12/09 00:13:22;;;;;;;1.10;1.07;;;4.40;98.00;;;;;;5094919;28;20487;-64
2021/12/09 00:15:51;;;;;;;1.10;0.90;;;4.40;98.00;;;;;;5094633;28;20542;-64
2021/12/09 00:18:21;;;;;;;1.10;0.90;;;4.30;98.00;;;;;;5094885;28;20465;-62
2021/12/09 00:20:55;;;;;;;1.50;1.10;;;4.30;98.00;;;;;;5094907;28;20457;-65
2021/12/09 00:23:25;;;;;;;1.10;1.00;;;4.30;98.00;;;;;;5094895;28;20466;-64
2021/12/09 00:25:55;;;;;;;1.10;1.10;;;4.40;98.00;;;;;;5094697;28;20453;-63
2021/12/09 00:28:29;;;;;;;1.10;0.90;;;4.40;98.00;;;;;;5094902;28;20464;-63
2021/12/09 00:31:01;;;;;;;1.17;1.07;;;4.30;98.00;;;;;;5094646;28;20515;-62
2021/12/09 00:33:40;;;;;;;1.10;1.00;;;4.10;98.00;;;;;;5094631;28;20487;-64
2021/12/09 00:36:10;;;;;;;1.10;0.90;;;4.10;98.00;;;;;;5094595;28;20456;-64
2021/12/09 00:38:41;;;;;;;1.10;0.90;;;4.10;98.00;;;;;;5094796;28;20456;-63
2021/12/09 00:41:12;;;;;;;1.10;1.00;;;4.10;98.00;;;;;;5094580;28;20462;-63
2021/12/09 00:43:45;;;;;;;1.10;1.00;;;4.20;98.00;;;;;;5094582;28;20452;-62
2021/12/09 00:46:14;;;;;;;1.30;1.03;;;4.20;98.00;;;;;;5094429;28;20467;-63
2021/12/09 00:48:44;;;;;;;1.10;0.90;;;4.10;98.00;;;;;;5094611;28;20452;-64
2021/12/09 00:51:15;;;;;;;1.60;1.40;;;4.10;98.00;;;;;;5094354;28;20756;-62
2021/12/09 00:53:45;;;;;;;1.10;1.00;;;4.10;98.00;;;;;;5093091;28;20484;-62
2021/12/09 00:56:18;;;;;;;1.30;1.17;;;4.10;98.00;;;;;;5094395;28;20465;-62
2021/12/09 00:58:49;;;;;;;1.10;1.00;;;4.10;98.00;;;;;;5094162;28;20464;-64
2021/12/09 01:01:18;;;;;;;1.20;1.00;;;4.00;98.00;;;;;;5094320;28;20488;-62
2021/12/09 01:03:47;;;;;;;1.10;1.00;;;4.00;98.00;;;;;;5093895;28;20471;-62
2021/12/09 01:06:16;;;;;;;1.10;1.00;;;4.00;98.00;;;;;;5093931;28;20450;-64
2021/12/09 01:08:48;;;;;;;1.10;1.00;;;4.00;98.00;;;;;;5092750;28;20555;-63
2021/12/09 01:11:22;;;;;;;1.27;1.23;;;4.10;98.00;;;;;;5093659;28;20464;-63
2021/12/09 01:13:51;;;;;;;1.10;1.07;;;4.20;98.00;;;;;;5091838;28;20481;-63
2021/12/09 01:16:20;;;;;;;1.43;1.00;;;4.20;98.00;;;;;;5093573;28;20463;-62
2021/12/09 01:18:49;;;;;;;1.53;1.40;;;4.30;98.00;;;;;;5093809;28;20465;-62
2021/12/09 01:21:19;;;;;;;1.47;1.20;;;4.30;98.00;;;;;;5093561;28;20461;-63
2021/12/09 01:23:49;;;;;;;2.20;1.43;;;4.30;98.00;;;;;;5093533;28;20463;-63
2021/12/09 01:26:18;;;;;;;1.70;1.10;;;4.30;98.00;;;;;;5093602;28;20545;-63
2021/12/09 01:28:52;;;;;;;1.60;1.10;;;4.30;98.00;;;;;;5093543;28;20459;-63
2021/12/09 01:31:24;;;;;;;1.33;1.00;;;4.30;98.00;;;;;;5093389;28;20491;-63
2021/12/09 01:33:59;;;;;;;1.10;1.00;;;4.40;98.00;;;;;;5093350;28;20483;-63
2021/12/09 01:36:28;;;;;;;1.10;1.00;;;4.40;98.00;;;;;;5093385;28;20946;-63
2021/12/09 01:39:04;;;;;;;1.10;1.03;;;4.30;98.00;;;;;;5093347;28;20554;-62
2021/12/09 01:41:34;;;;;;;2.33;1.10;;;4.30;98.00;;;;;;5093232;28;20488;-62
2021/12/09 01:44:05;;;;;;;1.77;1.10;;;4.30;98.00;;;;;;5092251;28;20462;-63
2021/12/09 01:46:35;;;;;;;1.10;1.00;;;4.40;98.00;;;;;;5091622;28;20495;-62
2021/12/09 01:49:09;;;;;;;1.10;1.00;;;4.60;98.00;;;;;;5093230;28;20455;-64
2021/12/09 01:51:40;;;;;;;1.10;0.90;;;4.60;98.00;;;;;;5093115;28;20517;-62
2021/12/09 01:54:11;;;;;;;2.13;2.00;;;4.60;98.00;;;;;;5093204;28;20483;-64
2021/12/09 01:56:40;;;;;;;1.43;1.20;;;4.60;98.00;;;;;;5093096;28;20457;-64
2021/12/09 01:59:11;;;;;;;1.53;1.20;;;4.70;98.00;;;;;;5093089;28;20463;-63
2021/12/09 02:01:43;;;;;;;1.10;1.03;;;4.70;98.00;;;;;;5092633;28;20493;-64
2021/12/09 02:04:16;;;;;;;1.30;1.00;;;4.80;98.00;;;;;;5091660;28;20544;-62
2021/12/09 02:06:47;;;;;;;1.20;1.10;;;4.70;98.00;;;;;;5092004;28;20475;-62
2021/12/09 02:09:18;;;;;;;1.10;1.00;;;4.60;98.00;;;;;;5092040;28;20543;-64
2021/12/09 02:11:48;;;;;;;4.70;1.10;;;4.70;98.00;;;;;;5091991;28;20460;-62
2021/12/09 02:14:17;;;;;;;1.10;1.00;;;4.60;98.00;;;;;;5091831;28;20483;-65
2021/12/09 02:16:46;;;;;;;1.10;1.10;;;4.60;98.00;;;;;;5091953;28;20456;-62
2021/12/09 02:19:17;;;;;;;1.10;1.00;;;4.50;98.00;;;;;;5091903;28;20539;-62
2021/12/09 02:21:50;;;;;;;1.30;1.00;;;4.40;98.00;;;;;;5091811;28;20468;-62
2021/12/09 02:24:20;;;;;;;1.53;1.37;;;4.40;98.00;;;;;;5091396;28;20456;-62
2021/12/09 02:26:51;;;;;;;1.10;1.00;;;4.30;98.00;;;;;;5092006;28;20487;-64
2021/12/09 02:29:21;;;;;;;1.10;0.93;;;4.30;98.00;;;;;;5091968;28;20453;-63
2021/12/09 02:31:56;;;;;;;1.10;1.00;;;4.40;98.00;;;;;;5092383;28;20497;-63
2021/12/09 02:34:25;;;;;;;1.33;1.20;;;4.40;98.00;;;;;;5092633;28;20518;-62
2021/12/09 02:36:58;;;;;;;1.17;1.03;;;4.40;98.00;;;;;;5092601;28;20482;-63
2021/12/09 02:39:27;;;;;;;1.40;1.00;;;4.50;98.00;;;;;;5092261;28;20943;-64
2021/12/09 02:41:55;;;;;;;1.20;1.10;;;4.50;98.00;;;;;;5091559;28;20460;-63
2021/12/09 02:44:24;;;;;;;1.10;0.90;;;4.50;98.00;;;;;;5091673;28;20529;-62
2021/12/09 02:46:57;;;;;;;1.30;1.00;;;4.40;98.00;;;;;;5091445;28;20532;-62
2021/12/09 02:49:29;;;;;;;1.30;1.10;;;4.50;98.00;;;;;;5091502;28;20825;-62
2021/12/09 02:52:12;;;;;;;1.20;1.10;;;4.40;98.00;;;;;;5091368;28;20492;-62
2021/12/09 02:54:40;;;;;;;1.20;1.10;;;4.40;98.00;;;;;;5091175;28;21079;-63
2021/12/09 02:57:09;;;;;;;1.10;1.00;;;4.40;98.00;;;;;;5090853;28;20832;-64
2021/12/09 02:59:39;;;;;;;1.10;1.00;;;4.40;98.00;;;;;;5091011;28;20964;-63
2021/12/09 03:02:11;;;;;;;4.60;1.20;;;4.40;98.00;;;;;;5091338;28;20958;-63
2021/12/09 03:04:44;;;;;;;1.10;0.90;;;4.40;98.00;;;;;;5089871;28;20499;-63
2021/12/09 03:07:15;;;;;;;1.83;1.20;;;4.40;98.00;;;;;;5090977;28;20862;-63
2021/12/09 03:09:51;;;;;;;1.10;0.97;;;4.40;98.00;;;;;;5091005;28;20455;-62
2021/12/09 03:12:24;;;;;;;1.47;1.10;;;4.40;98.00;;;;;;5090890;28;20447;-62
2021/12/09 03:14:53;;;;;;;1.40;1.20;;;4.30;98.00;;;;;;5091150;28;20924;-62
2021/12/09 03:17:22;;;;;;;1.10;1.00;;;4.30;98.00;;;;;;5090973;28;20856;-62
2021/12/09 03:19:56;;;;;;;1.10;1.00;;;4.40;98.00;;;;;;5089877;28;20830;-63
2021/12/09 03:22:29;;;;;;;1.10;0.90;;;4.40;98.00;;;;;;5089691;28;20950;-64
2021/12/09 03:24:57;;;;;;;1.10;1.07;;;4.60;98.00;;;;;;5090955;28;20827;-63
2021/12/09 03:27:25;;;;;;;1.20;1.00;;;4.60;98.00;;;;;;5090907;28;20539;-62
2021/12/09 03:29:54;;;;;;;1.33;1.17;;;4.50;98.00;;;;;;5090895;28;20900;-63
2021/12/09 03:32:31;;;;;;;1.47;1.30;;;4.40;98.00;;;;;;5090903;28;20464;-62
2021/12/09 03:35:02;;;;;;;1.10;0.90;;;4.40;98.00;;;;;;5091871;28;20845;-63
2021/12/09 03:37:34;;;;;;;1.87;1.10;;;4.60;98.00;;;;;;5095109;28;20456;-62
2021/12/09 03:40:03;;;;;;;1.10;0.90;;;4.40;98.00;;;;;;5094939;28;20937;-62
2021/12/09 03:42:34;;;;;;;1.40;1.07;;;4.40;98.00;;;;;;5094871;28;20456;-63
2021/12/09 03:45:02;;;;;;;1.10;1.00;;;4.40;98.00;;;;;;5094835;28;20456;-63
2021/12/09 03:47:32;;;;;;;1.10;1.07;;;4.50;98.00;;;;;;5094892;28;20447;-62
2021/12/09 03:50:02;;;;;;;1.20;1.10;;;4.40;98.00;;;;;;5094765;28;20834;-64
2021/12/09 03:52:35;;;;;;;1.10;0.97;;;4.30;98.00;;;;;;5094949;28;20459;-62
2021/12/09 03:55:07;;;;;;;1.10;1.00;;;4.20;98.00;;;;;;5093788;28;20902;-63
2021/12/09 04:00:30;;;;;;;1.40;1.13;;;4.20;98.00;;;;;;5094757;28;20459;-64
2021/12/09 04:03:08;;;;;;;1.20;1.20;;;4.30;98.00;;;;;;5094475;28;20541;-63
2021/12/09 04:05:36;;;;;;;1.63;1.43;;;4.40;98.00;;;;;;5090574;28;20459;-62
2021/12/09 04:08:08;;;;;;;1.10;1.10;;;4.40;98.00;;;;;;5093976;28;20456;-62
2021/12/09 04:10:37;;;;;;;1.10;0.90;;;4.40;98.00;;;;;;5094543;28;20530;-62
2021/12/09 04:13:05;;;;;;;1.20;1.20;;;4.30;98.00;;;;;;5093975;28;20455;-63
2021/12/09 04:15:33;;;;;;;1.10;1.00;;;4.30;98.00;;;;;;5094238;28;20487;-62
2021/12/09 04:18:01;;;;;;;1.30;1.10;;;4.40;98.00;;;;;;5094268;28;20456;-62
2021/12/09 04:20:29;;;;;;;1.30;1.10;;;4.40;98.00;;;;;;5094109;28;20451;-62
2021/12/09 04:22:58;;;;;;;1.10;1.00;;;4.40;98.00;;;;;;5093955;28;20462;-62
2021/12/09 04:25:27;;;;;;;1.33;1.27;;;4.40;98.00;;;;;;5093824;28;20471;-62
2021/12/09 04:28:03;;;;;;;2.30;1.63;;;4.30;98.00;;;;;;5093864;28;20528;-62
2021/12/09 04:30:50;;;;;;;1.23;1.20;;;4.20;98.00;;;;;;5093954;28;20490;-65
2021/12/09 04:33:34;;;;;;;1.93;1.43;;;4.20;98.00;;;;;;5093843;28;20517;-63
2021/12/09 04:36:08;;;;;;;1.60;1.20;;;4.20;98.00;;;;;;5092799;28;20946;-62
2021/12/09 04:38:37;;;;;;;1.10;1.00;;;4.20;98.00;;;;;;5093658;28;20476;-61
2021/12/09 04:41:07;;;;;;;1.10;1.00;;;4.20;98.00;;;;;;5093715;28;20456;-64
2021/12/09 04:43:42;;;;;;;1.10;0.93;;;4.10;98.00;;;;;;5092547;28;20475;-62
2021/12/09 04:46:11;;;;;;;1.10;1.00;;;4.10;98.00;;;;;;5093104;28;20456;-61
2021/12/09 04:48:39;;;;;;;1.10;1.00;;;4.20;98.00;;;;;;5093575;28;20458;-62
2021/12/09 04:51:08;;;;;;;1.10;1.00;;;4.30;98.00;;;;;;5093572;28;20490;-62
2021/12/09 04:53:35;;;;;;;1.40;1.30;;;4.30;98.00;;;;;;5093474;28;20874;-63
2021/12/09 04:56:06;;;;;;;1.10;1.00;;;4.20;98.00;;;;;;5093415;28;20495;-62
2021/12/09 04:58:34;;;;;;;1.20;1.13;;;4.20;98.00;;;;;;5093526;28;20456;-63
2021/12/09 05:01:06;;;;;;;1.63;1.57;;;4.20;98.00;;;;;;5093258;28;20461;-63
2021/12/09 05:03:36;;;;;;;1.20;1.00;;;4.20;98.00;;;;;;5093332;28;20808;-63
2021/12/09 05:06:05;;;;;;;1.60;1.10;;;4.20;98.00;;;;;;5092940;28;20510;-63
2021/12/09 05:08:39;;;;;;;1.20;1.10;;;4.20;98.00;;;;;;5093217;28;20456;-65
2021/12/09 05:11:16;;;;;;;1.33;1.27;;;4.20;98.00;;;;;;5093338;28;20531;-63
2021/12/09 05:13:44;;;;;;;1.27;1.20;;;4.30;98.00;;;;;;5093444;28;20459;-62
2021/12/09 05:16:17;;;;;;;1.10;0.97;;;4.30;98.00;;;;;;5093328;28;20656;-63
2021/12/09 05:18:50;;;;;;;1.10;0.97;;;4.40;98.00;;;;;;5093099;28;20459;-63
2021/12/09 05:21:19;;;;;;;1.20;1.10;;;4.30;98.00;;;;;;5092972;28;20454;-62
2021/12/09 05:23:52;;;;;;;1.20;1.13;;;4.30;98.00;;;;;;5093011;28;20554;-62
2021/12/09 05:26:50;;;;;;;1.10;1.00;;;4.30;98.00;;;;;;5092903;28;20452;-62
2021/12/09 05:29:33;;;;;;;2.13;1.37;;;4.40;98.00;;;;;;5089627;28;20484;-64
2021/12/09 05:32:10;;;;;;;1.40;1.30;;;4.50;98.00;;;;;;5092708;28;20452;-62
2021/12/09 05:34:48;;;;;;;1.10;1.00;;;4.50;98.00;;;;;;5092385;28;20482;-62
2021/12/09 05:37:48;;;;;;;1.40;1.27;;;4.60;98.00;;;;;;5092483;28;20451;-63
2021/12/09 05:40:33;;;;;;;2.50;1.87;;;4.60;98.00;;;;;;5092427;28;20452;-63
2021/12/09 05:43:05;;;;;;;1.10;1.00;;;4.70;98.00;;;;;;5092491;28;20457;-63
2021/12/09 05:45:34;;;;;;;1.20;1.20;;;4.60;98.00;;;;;;5092444;28;20456;-62
2021/12/09 05:48:04;;;;;;;1.30;1.30;;;4.60;98.00;;;;;;5092683;28;20451;-63
2021/12/09 05:50:33;;;;;;;1.10;1.00;;;4.50;98.00;;;;;;5092519;28;20463;-63
2021/12/09 05:53:01;;;;;;;1.43;1.13;;;4.50;98.00;;;;;;5091117;28;20456;-62
2021/12/09 05:55:32;;;;;;;1.10;1.00;;;4.50;98.00;;;;;;5092080;28;20488;-63
2021/12/09 05:58:00;;;;;;;1.30;1.20;;;4.50;98.00;;;;;;5092284;28;20460;-62
2021/12/09 06:00:28;;;;;;;1.20;1.20;;;4.40;98.00;;;;;;5092101;28;20462;-63
2021/12/09 06:02:56;;;;;;;3.93;1.50;;;4.40;98.00;;;;;;5092002;28;20460;-62
2021/12/09 06:05:28;;;;;;;1.30;1.00;;;4.40;98.00;;;;;;5092010;28;20452;-63
2021/12/09 06:07:56;;;;;;;1.80;1.10;;;4.40;98.00;;;;;;5092049;28;20464;-63
2021/12/09 06:10:39;;;;;;;1.10;1.00;;;4.40;98.00;;;;;;5090238;28;21449;-63
2021/12/09 06:13:30;;;;;;;1.10;1.00;;;4.40;98.00;;;;;;5091872;28;21018;-62
2021/12/09 06:16:04;;;;;;;1.10;1.00;;;4.40;98.00;;;;;;5091744;28;20488;-62
2021/12/09 06:18:38;;;;;;;3.00;1.50;;;4.40;98.00;;;;;;5091776;28;20483;-62
2021/12/09 06:21:07;;;;;;;1.10;1.00;;;4.60;98.00;;;;;;5091954;28;20521;-63
2021/12/09 06:23:36;;;;;;;1.10;0.90;;;4.50;98.00;;;;;;5091535;28;20459;-62
2021/12/09 06:26:11;;;;;;;4.20;1.70;;;4.50;98.00;;;;;;5091707;28;20468;-63
2021/12/09 06:28:48;;;;;;;1.27;1.17;;;4.40;98.00;;;;;;5091680;28;20463;-62
2021/12/09 06:31:30;;;;;;;2.20;1.27;;;4.40;98.00;;;;;;5091620;28;20474;-62
2021/12/09 06:33:58;;;;;;;1.10;1.00;;;4.40;98.00;;;;;;5091888;28;20452;-62
2021/12/09 06:36:28;;;;;;;1.20;1.17;;;4.30;98.00;;;;;;5092013;28;20466;-63
2021/12/09 06:38:56;;;;;;;1.30;1.10;;;4.30;98.00;;;;;;5091798;28;20457;-62
2021/12/09 06:41:24;;;;;;;1.10;1.00;;;4.30;98.00;;;;;;5091572;28;20454;-63
2021/12/09 06:43:56;;;;;;;1.30;1.10;;;4.40;98.00;;;;;;5091916;28;20521;-65
2021/12/09 06:46:26;;;;;;;1.10;1.00;;;4.40;98.00;;;;;;5091295;28;20444;-62
2021/12/09 06:48:57;;;;;;;1.30;1.23;;;4.50;98.00;;;;;;5091379;28;20460;-64
2021/12/09 06:51:27;;;;;;;1.10;1.00;;;4.50;98.00;;;;;;5091294;28;20459;-64
2021/12/09 06:53:59;;;;;;;1.27;1.23;;;4.40;98.00;;;;;;5091035;28;20484;-65
2021/12/09 06:56:30;;;;;;;1.40;1.27;;;4.30;98.00;;;;;;5090898;28;20541;-63
2021/12/09 06:58:58;;;;;;;1.37;1.33;;;4.20;98.00;;;;;;5091206;28;20466;-62
2021/12/09 07:01:32;;;;;;;1.10;1.00;;;4.10;98.00;;;;;;5091211;28;20525;-64
2021/12/09 07:04:02;;;;;;;1.10;1.00;;;4.10;98.00;;;;;;5090984;28;20522;-63
2021/12/09 07:06:31;;;;;;;1.10;0.90;;;4.00;98.00;;;;;;5091010;28;20531;-62
2021/12/09 07:09:03;;;;;;;1.20;1.00;;;3.90;98.00;;;;;;5090881;28;20458;-64
2021/12/09 07:11:36;;;;;;;1.10;1.10;;;4.00;98.00;;;;;;5090672;28;20482;-63
2021/12/09 07:14:05;;;;;;;1.20;1.03;;;3.90;98.00;;;;;;5091194;28;20493;-63
2021/12/09 07:16:37;;;;;;;1.40;1.10;;;3.90;98.00;;;;;;5090910;28;20484;-64
2021/12/09 07:19:07;;;;;;;1.20;1.00;;;3.90;98.00;;;;;;5090956;28;20513;-62
2021/12/09 07:21:39;;;;;;;1.30;1.20;;;3.80;98.00;;;;;;5090841;28;20453;-62
2021/12/09 07:24:13;;;;;;;1.87;1.20;;;3.80;98.00;;;;;;5089613;28;20463;-62
2021/12/09 07:26:45;;;;;;;1.20;1.00;;;3.70;98.00;;;;;;5089617;28;20452;-64
2021/12/09 07:29:13;;;;;;;1.57;1.13;;;3.70;98.00;;;;;;5090794;28;20465;-61
2021/12/09 07:31:44;;;;;;;1.10;0.97;;;3.60;98.00;;;;;;5090845;28;20509;-63
2021/12/09 07:34:12;;;;;;;1.10;1.00;;;3.60;98.00;;;;;;5090787;28;20501;-63
2021/12/09 07:36:42;;;;;;;1.13;1.03;;;3.60;98.00;;;;;;5090782;28;20484;-63
2021/12/09 07:39:12;;;;;;;1.20;1.00;;;3.60;98.00;;;;;;5090861;28;20456;-63
2021/12/09 07:41:41;;;;;;;1.20;1.10;;;3.60;98.00;;;;;;5089730;28;20834;-62
2021/12/09 07:44:17;;;;;;;1.93;1.83;;;3.60;98.00;;;;;;5090508;28;20793;-63
2021/12/09 07:46:45;;;;;;;1.20;1.00;;;3.60;98.00;;;;;;5091044;28;20505;-63
2021/12/09 07:49:19;;;;;;;1.10;1.00;;;3.60;98.00;;;;;;5091567;28;20499;-63
2021/12/09 07:51:50;;;;;;;1.30;1.10;;;3.60;98.00;;;;;;5091408;28;20456;-63
2021/12/09 07:54:24;;;;;;;1.10;1.00;;;3.70;98.00;;;;;;5091844;28;20813;-63
2021/12/09 07:56:52;;;;;;;2.33;1.77;;;3.70;98.00;;;;;;5091090;28;20961;-62
2021/12/09 07:59:24;;;;;;;1.20;1.10;;;3.60;98.00;;;;;;5091051;28;20928;-63
2021/12/09 08:01:54;;;;;;;1.50;1.20;;;3.60;98.00;;;;;;5090433;28;20459;-62
2021/12/09 08:04:27;;;;;;;1.27;1.10;;;3.70;98.00;;;;;;5090613;28;20460;-62
2021/12/09 08:06:59;;;;;;;1.40;1.10;;;3.80;98.00;;;;;;5090663;28;20951;-62
2021/12/09 08:09:29;;;;;;;1.20;1.10;;;3.90;98.00;;;;;;5089757;28;20862;-62
2021/12/09 08:12:00;;;;;;;2.10;1.30;;;3.90;98.00;;;;;;5090686;28;20455;-63
2021/12/09 08:14:30;;;;;;;1.10;1.00;;;4.00;98.00;;;;;;5089282;28;20518;-62
2021/12/09 08:17:44;;;;;;;1.10;1.00;;;4.00;98.00;;;;;;5090337;28;20479;-63
2021/12/09 08:20:19;;;;;;;1.10;1.00;;;4.10;98.00;;;;;;5089923;28;20497;-62
2021/12/09 08:22:52;;;;;;;1.10;0.90;;;4.00;98.00;;;;;;5092581;28;20487;-64
2021/12/09 08:25:24;;;;;;;1.10;1.00;;;4.10;98.00;;;;;;5093993;28;21002;-63
2021/12/09 08:27:58;;;;;;;1.10;1.00;;;4.20;98.00;;;;;;5094141;28;20463;-62
2021/12/09 08:30:27;;;;;;;1.20;1.20;;;4.20;98.00;;;;;;5093949;28;20452;-62
2021/12/09 08:32:58;;;;;;;1.10;0.97;;;4.20;98.00;;;;;;5094217;28;20513;-62
2021/12/09 08:35:28;;;;;;;1.10;1.00;;;4.40;98.00;;;;;;5093555;28;20545;-62
2021/12/09 08:38:03;;;;;;;1.10;1.00;;;4.50;98.00;;;;;;5093945;28;20980;-63
2021/12/09 08:40:34;;;;;;;1.10;1.00;;;4.70;98.00;;;;;;5093879;28;20456;-62
2021/12/09 08:43:05;;;;;;;1.10;0.90;;;4.90;98.00;;;;;;5093837;28;20488;-62
2021/12/09 08:45:36;;;;;;;1.10;1.00;;;4.90;98.00;;;;;;5091685;28;20951;-63
2021/12/09 08:48:07;;;;;;;1.10;0.90;;;5.00;98.00;;;;;;5085241;28;20464;-61
2021/12/09 08:50:42;;;;;;;1.40;1.10;;;4.90;98.00;;;;;;5087861;28;20453;-62
2021/12/09 08:53:18;;;;;;;1.10;1.00;;;4.80;98.00;;;;;;5091049;28;20470;-62
2021/12/09 08:55:47;;;;;;;1.10;1.10;;;4.70;98.00;;;;;;5090937;28;20491;-63
2021/12/09 08:58:16;;;;;;;1.10;1.00;;;4.70;98.00;;;;;;5090486;28;20919;-61
2021/12/09 09:00:52;;;;;;;1.20;1.10;;;4.70;98.00;;;;;;5090871;28;20531;-62
2021/12/09 09:03:26;;;;;;;1.10;1.00;;;4.70;98.00;;;;;;5090428;28;20473;-62
2021/12/09 09:06:02;;;;;;;1.13;1.00;;;4.90;98.00;;;;;;5090873;28;21052;-62
2021/12/09 09:08:37;;;;;;;1.10;1.00;;;4.90;98.00;;;;;;5090817;28;20456;-62
2021/12/09 09:11:16;;;;;;;1.40;1.10;;;4.90;98.00;;;;;;5090660;28;20470;-63
2021/12/09 09:13:44;;;;;;;1.20;1.10;;;5.10;98.00;;;;;;5084201;28;20456;-62
2021/12/09 09:16:13;;;;;;;1.10;1.00;;;5.30;98.00;;;;;;5090531;28;20895;-61
2021/12/09 09:18:43;;;;;;;1.20;1.00;;;5.30;98.00;;;;;;5090894;28;20453;-62
2021/12/09 09:21:11;;;;;;;1.10;1.00;;;5.40;98.00;;;;;;5090803;28;20506;-62
2021/12/09 09:23:43;;;;;;;1.10;1.00;;;5.40;98.00;;;;;;5089838;28;20525;-61
2021/12/09 09:26:13;;;;;;;1.40;1.00;;;5.40;98.00;;;;;;5090533;28;20496;-61
2021/12/09 09:28:41;;;;;;;1.40;1.10;;;5.50;98.00;;;;;;5082325;28;20476;-61
2021/12/09 09:31:12;;;;;;;1.10;1.00;;;5.60;98.00;;;;;;5083897;28;20462;-64
2021/12/09 09:33:41;;;;;;;1.30;1.30;;;5.60;98.00;;;;;;5092866;28;20474;-62
2021/12/09 09:36:14;;;;;;;1.10;1.00;;;5.70;98.00;;;;;;5093219;28;20484;-62
2021/12/09 09:38:42;;;;;;;1.10;1.00;;;5.80;98.00;;;;;;5093058;28;20517;-61
2021/12/09 09:41:17;;;;;;;1.10;1.00;;;5.80;98.00;;;;;;5083806;28;20468;-61
2021/12/09 09:43:58;;;;;;;2.50;1.17;;;6.40;98.00;;;;;;5089501;28;20510;-63
2021/12/09 09:46:29;;;;;;;1.10;1.00;;;7.60;98.00;;;;;;5089813;28;20485;-62
2021/12/09 09:49:01;;;;;;;1.40;1.13;;;8.80;98.00;;;;;;5089432;28;20456;-61
2021/12/09 09:51:32;;;;;;;1.37;1.00;;;9.60;98.00;;;;;;5092177;28;20464;-63
2021/12/09 09:54:17;;;;;;;1.20;1.00;;;10.00;98.00;;;;;;5092523;28;20465;-62
2021/12/09 09:56:49;;;;;;;1.30;1.20;;;9.70;98.00;;;;;;5092114;28;20487;-62
2021/12/09 09:59:22;;;;;;;1.20;1.00;;;9.20;98.00;;;;;;5092385;28;20456;-61
2021/12/09 10:01:55;;;;;;;1.30;1.20;;;8.70;98.00;;;;;;5092091;28;20616;-63
2021/12/09 10:04:37;;;;;;;1.40;1.03;;;8.10;98.00;;;;;;5092095;28;20535;-61
2021/12/09 10:07:09;;;;;;;1.20;0.97;;;7.60;98.00;;;;;;5092173;28;20488;-63
2021/12/09 10:09:40;;;;;;;1.90;1.40;;;7.30;98.00;;;;;;5092125;28;20454;-62
2021/12/09 10:12:13;;;;;;;1.20;1.00;;;7.10;98.00;;;;;;5091941;28;20456;-61
2021/12/09 10:14:46;;;;;;;1.20;1.00;;;6.90;98.00;;;;;;5091883;28;20477;-61
2021/12/09 10:17:21;;;;;;;1.30;1.30;;;6.70;98.00;;;;;;5091692;28;20487;-61
2021/12/09 10:19:54;;;;;;;1.20;0.90;;;6.70;98.00;;;;;;5091975;28;20465;-61
2021/12/09 10:22:29;;;;;;;1.20;1.00;;;6.50;98.00;;;;;;5091799;28;20552;-61
2021/12/09 10:25:02;;;;;;;1.40;1.10;;;6.50;98.00;;;;;;5091848;28;20456;-62
2021/12/09 10:27:35;;;;;;;1.20;1.00;;;6.30;98.00;;;;;;5091466;28;20465;-62
2021/12/09 10:30:18;;;;;;;1.20;1.00;;;6.20;98.00;;;;;;5091639;28;20464;-61
2021/12/09 10:32:50;;;;;;;1.20;1.17;;;6.30;98.00;;;;;;5091835;28;20490;-62
2021/12/09 10:35:22;;;;;;;1.20;0.93;;;6.20;98.00;;;;;;5091733;28;20584;-62
2021/12/09 10:37:51;;;;;;;1.20;1.00;;;6.30;98.00;;;;;;5091956;28;20520;-61
2021/12/09 10:40:26;;;;;;;1.20;1.00;;;6.30;98.00;;;;;;5091837;28;20934;-62
2021/12/09 10:43:01;;;;;;;1.70;1.30;;;6.40;98.00;;;;;;5091728;28;20472;-61
2021/12/09 10:45:33;;;;;;;1.40;1.00;;;6.40;98.00;;;;;;5090907;28;20494;-62
2021/12/09 10:48:19;;;;;;;1.20;1.00;;;6.40;98.00;;;;;;5090594;28;20711;-62
2021/12/09 10:51:07;;;;;;;1.20;1.00;;;6.20;98.00;;;;;;5090562;28;20504;-62
2021/12/09 10:53:47;;;;;;;3.43;1.33;;;6.10;98.00;;;;;;5091347;28;20544;-62
2021/12/09 10:56:26;;;;;;;1.20;1.00;;;6.20;98.00;;;;;;5090916;28;20487;-62
2021/12/09 10:58:59;;;;;;;1.20;1.00;;;6.20;98.00;;;;;;5091378;28;20452;-62
2021/12/09 11:01:38;;;;;;;1.20;0.90;;;6.30;98.00;;;;;;5090932;28;20499;-61
2021/12/09 11:04:24;;;;;;;1.40;1.10;;;6.40;98.00;;;;;;5089325;28;20484;-61
2021/12/09 11:06:53;;;;;;;1.40;1.33;;;6.50;98.00;;;;;;5091162;28;20586;-61
2021/12/09 11:09:26;;;;;;;2.90;1.10;;;6.50;98.00;;;;;;5091199;28;20505;-62
2021/12/09 11:11:58;;;;;;;1.30;1.20;;;6.30;98.00;;;;;;5091142;28;21028;-62
2021/12/09 11:14:32;;;;;;;1.20;1.00;;;6.30;98.00;;;;;;5091125;28;20533;-61
2021/12/09 11:17:03;;;;;;;1.20;1.07;;;6.30;98.00;;;;;;5091053;28;20489;-61
2021/12/09 11:19:36;;;;;;;1.17;1.00;;;6.30;98.00;;;;;;5090955;28;20538;-62
2021/12/09 11:22:08;;;;;;;1.20;1.10;;;6.30;98.00;;;;;;5091079;28;20462;-62
2021/12/09 11:24:46;;;;;;;4.93;1.40;;;6.30;98.00;;;;;;5090790;28;20452;-61
2021/12/09 11:27:21;;;;;;;1.90;1.20;;;6.30;98.00;;;;;;5090875;28;20519;-62
2021/12/09 11:30:06;;;;;;;1.47;1.20;;;6.30;98.00;;;;;;5090705;28;20455;-62
2021/12/09 11:32:40;;;;;;;1.50;1.30;;;6.40;98.00;;;;;;5090546;28;20450;-62
2021/12/09 11:35:25;;;;;;;1.20;1.10;;;6.40;98.00;;;;;;5090951;28;20484;-62
2021/12/09 11:38:01;;;;;;;1.20;1.00;;;6.40;98.00;;;;;;5090760;28;20487;-62
2021/12/09 11:40:38;;;;;;;1.20;1.00;;;6.30;98.00;;;;;;5090714;28;20452;-62
2021/12/09 11:43:10;;;;;;;1.60;1.10;;;6.30;98.00;;;;;;5089621;28;20463;-61
2021/12/09 11:45:45;;;;;;;1.20;1.10;;;6.40;98.00;;;;;;5088932;28;20457;-63
2021/12/09 11:48:14;;;;;;;1.50;1.40;;;6.40;98.00;;;;;;5090889;28;20456;-62
2021/12/09 11:50:44;;;;;;;1.20;1.00;;;6.50;98.00;;;;;;5090717;28;20481;-62
2021/12/09 11:53:15;;;;;;;1.60;1.50;;;6.50;98.00;;;;;;5090866;28;20456;-62
2021/12/09 11:55:50;;;;;;;1.17;1.00;;;6.70;98.00;;;;;;5091243;28;20473;-63
2021/12/09 11:58:32;;;;;;;1.20;0.90;;;6.70;98.00;;;;;;5094847;28;20450;-62
2021/12/09 12:07:16;;;;;;;2.80;2.03;;;6.90;98.00;;;;;;5094812;28;20445;-62
2021/12/09 12:12:47;;;;;;;1.20;1.20;;;6.90;98.00;;;;;;5094526;28;20445;-62
2021/12/09 12:18:56;;;;;;;1.20;1.00;;;6.60;98.00;;;;;;5031276;28;20462;-63
2021/12/09 12:21:58;;;;;;;1.30;1.10;;;6.40;98.00;;;;;;5031361;28;20518;-61
2021/12/09 12:24:45;;;;;;;1.20;1.00;;;6.40;98.00;;;;;;5094292;28;20498;-61
2021/12/09 12:27:57;;;;;;;1.20;1.07;;;6.50;98.00;;;;;;5094056;28;20458;-61
2021/12/09 12:31:05;;;;;;;1.20;1.00;;;6.60;98.00;;;;;;5051370;28;20466;-62
2021/12/09 12:34:13;;;;;;;1.30;1.17;;;6.50;98.00;;;;;;5051207;28;20533;-62
2021/12/09 12:37:14;;;;;;;2.50;1.40;;;6.50;98.00;;;;;;5093943;28;20483;-61
2021/12/09 12:40:07;;;;;;;1.87;1.13;;;6.50;98.00;;;;;;5093918;28;20454;-61
2021/12/09 12:42:52;;;;;;;1.20;1.00;;;6.60;98.00;;;;;;5093775;28;20493;-61
2021/12/09 12:45:44;;;;;;;1.40;1.20;;;6.70;98.00;;;;;;5093810;28;20830;-61
2021/12/09 12:49:03;;;;;;;1.20;1.00;;;6.90;98.00;;;;;;5093651;28;20468;-62
2021/12/09 12:51:44;;;;;;;2.23;1.97;;;7.10;98.00;;;;;;5093574;28;20456;-63
2021/12/09 12:54:33;;;;;;;1.13;1.00;;;7.10;98.00;;;;;;5093894;28;20722;-61
2021/12/09 12:57:14;;;;;;;1.97;1.50;;;7.20;98.00;;;;;;5093657;28;20513;-63
2021/12/09 13:00:00;;;;;;;1.20;1.00;;;7.10;98.00;;;;;;5093570;28;20449;-62
2021/12/09 13:03:09;;;;;;;1.13;0.90;;;7.20;98.00;;;;;;5093254;28;20542;-62
2021/12/09 13:05:54;;;;;;;1.70;1.13;;;7.20;98.00;;;;;;5093443;28;20456;-61
2021/12/09 13:09:10;;;;;;;1.20;1.00;;;7.20;98.00;;;;;;5092797;28;20875;-62
2021/12/09 13:11:53;;;;;;;1.40;1.20;;;7.10;98.00;;;;;;5093270;28;20867;-62
2021/12/09 13:14:26;;;;;;;1.20;1.20;;;7.10;98.00;;;;;;5093177;28;20506;-61
2021/12/09 13:17:07;;;;;;;1.20;1.20;;;7.10;98.00;;;;;;5093094;28;20578;-62
2021/12/09 13:19:40;;;;;;;2.03;1.43;;;7.10;98.00;;;;;;5093232;28;20454;-63
2021/12/09 13:22:34;;;;;;;1.20;1.20;;;7.10;98.00;;;;;;5092617;28;20456;-62
2021/12/09 13:25:22;;;;;;;1.50;1.20;;;7.00;98.00;;;;;;5093443;28;20457;-61
2021/12/09 13:27:59;;;;;;;1.20;1.00;;;6.80;98.00;;;;;;5093039;28;20493;-62
2021/12/09 13:31:01;;;;;;;1.43;1.37;;;6.60;98.00;;;;;;5093050;28;20497;-61
2021/12/09 13:36:33;;;;;;;1.30;1.20;;;6.60;98.00;;;;;;5092260;28;20514;-61
2021/12/09 13:47:45;;;;;;;1.20;1.10;;;6.10;98.00;;;;;;5091659;28;20522;-61
2021/12/09 13:55:48;;;;;;;1.20;1.00;;;6.10;98.00;;;;;;5092455;28;20800;-61
2021/12/09 13:58:22;;;;;;;1.67;1.10;;;6.00;98.00;;;;;;5092178;28;20851;-62
2021/12/09 14:00:58;;;;;;;1.20;1.00;;;6.00;98.00;;;;;;5091416;28;20480;-62
2021/12/09 14:03:31;;;;;;;1.20;1.20;;;6.00;98.00;;;;;;5091683;28;20463;-62
2021/12/09 14:06:04;;;;;;;1.30;1.20;;;6.00;98.00;;;;;;5092187;28;20461;-61
2021/12/09 14:08:40;;;;;;;1.20;1.00;;;6.00;98.00;;;;;;5092126;28;20492;-61
2021/12/09 14:11:16;;;;;;;1.10;1.00;;;6.10;98.00;;;;;;5091631;28;20481;-62